sensor_id;sensor_type;location;lat;lon;timestamp;pressure;altitude;pressure_sealevel;temperature;humidity
73594;BME280;64760;53.404;23.498;2023-05-21T00:01:03;100591.06;;;11.58;60.54
73594;BME280;64760;53.404;23.498;2023-05-21T00:03:38;100591.94;;;11.51;61.29
73594;BME280;64760;53.404;23.498;2023-05-21T00:06:07;100589.84;;;11.46;61.43
73594;BME280;64760;53.404;23.498;2023-05-21T00:08:33;100593.16;;;11.48;61.40
73594;BME280;64760;53.404;23.498;2023-05-21T00:10:59;100593.31;;;11.47;61.50
73594;BME280;64760;53.404;23.498;2023-05-21T00:20:18;100595.75;;;11.42;62.08
73594;BME280;64760;53.404;23.498;2023-05-21T00:22:46;100598.75;;;11.39;62.05
73594;BME280;64760;53.404;23.498;2023-05-21T00:25:13;100599.72;;;11.23;62.42
73594;BME280;64760;53.404;23.498;2023-05-21T00:27:39;100589.63;;;11.10;62.75
73594;BME280;64760;53.404;23.498;2023-05-21T00:30:06;100599.84;;;11.07;63.20
73594;BME280;64760;53.404;23.498;2023-05-21T00:32:32;100599.84;;;11.07;63.58
73594;BME280;64760;53.404;23.498;2023-05-21T00:34:58;100598.53;;;11.03;63.81
73594;BME280;64760;53.404;23.498;2023-05-21T00:37:25;100598.25;;;10.98;63.88
73594;BME280;64760;53.404;23.498;2023-05-21T00:39:51;100599.25;;;10.97;64.64
73594;BME280;64760;53.404;23.498;2023-05-21T00:42:17;100610.72;;;10.91;64.63
73594;BME280;64760;53.404;23.498;2023-05-21T00:44:44;100604.03;;;10.87;64.75
73594;BME280;64760;53.404;23.498;2023-05-21T00:47:12;100604.25;;;10.77;65.24
73594;BME280;64760;53.404;23.498;2023-05-21T00:49:38;100605.78;;;10.71;65.66
73594;BME280;64760;53.404;23.498;2023-05-21T00:52:05;100608.19;;;10.66;65.82
73594;BME280;64760;53.404;23.498;2023-05-21T00:54:32;100610.50;;;10.69;65.99
73594;BME280;64760;53.404;23.498;2023-05-21T00:56:58;100609.00;;;10.67;65.92
73594;BME280;64760;53.404;23.498;2023-05-21T00:59:26;100612.69;;;10.66;66.24
73594;BME280;64760;53.404;23.498;2023-05-21T01:01:55;100612.22;;;10.62;66.37
73594;BME280;64760;53.404;23.498;2023-05-21T01:04:24;100614.41;;;10.59;66.61
73594;BME280;64760;53.404;23.498;2023-05-21T01:06:51;100614.53;;;10.65;66.56
73594;BME280;64760;53.404;23.498;2023-05-21T01:09:18;100616.22;;;10.66;66.18
73594;BME280;64760;53.404;23.498;2023-05-21T01:11:48;100612.22;;;10.62;66.83
73594;BME280;64760;53.404;23.498;2023-05-21T01:14:16;100617.91;;;10.59;66.81
73594;BME280;64760;53.404;23.498;2023-05-21T01:16:46;100617.41;;;10.56;66.92
73594;BME280;64760;53.404;23.498;2023-05-21T01:19:18;100613.94;;;10.47;67.25
73594;BME280;64760;53.404;23.498;2023-05-21T01:21:48;100606.59;;;10.41;67.30
73594;BME280;64760;53.404;23.498;2023-05-21T01:24:15;100609.63;;;10.38;67.80
73594;BME280;64760;53.404;23.498;2023-05-21T01:26:42;100615.16;;;10.36;68.19
73594;BME280;64760;53.404;23.498;2023-05-21T01:29:09;100615.34;;;10.35;67.77
73594;BME280;64760;53.404;23.498;2023-05-21T01:34:49;100609.47;;;10.31;68.26
73594;BME280;64760;53.404;23.498;2023-05-21T01:37:50;100611.50;;;10.29;68.56
73594;BME280;64760;53.404;23.498;2023-05-21T01:40:23;100615.53;;;10.25;68.78
73594;BME280;64760;53.404;23.498;2023-05-21T01:42:51;100612.53;;;10.20;68.89
73594;BME280;64760;53.404;23.498;2023-05-21T01:45:18;100604.19;;;10.15;68.91
73594;BME280;64760;53.404;23.498;2023-05-21T01:47:49;100611.69;;;10.12;69.54
73594;BME280;64760;53.404;23.498;2023-05-21T01:50:17;100614.06;;;10.07;70.05
73594;BME280;64760;53.404;23.498;2023-05-21T01:52:48;100606.06;;;9.99;70.66
73594;BME280;64760;53.404;23.498;2023-05-21T01:55:16;100610.41;;;9.91;70.73
73594;BME280;64760;53.404;23.498;2023-05-21T01:57:42;100604.06;;;9.84;71.10
73594;BME280;64760;53.404;23.498;2023-05-21T02:00:09;100601.06;;;9.79;71.79
73594;BME280;64760;53.404;23.498;2023-05-21T02:02:41;100598.72;;;9.76;72.17
73594;BME280;64760;53.404;23.498;2023-05-21T02:05:08;100603.44;;;9.74;72.63
73594;BME280;64760;53.404;23.498;2023-05-21T02:07:34;100602.59;;;9.74;72.68
73594;BME280;64760;53.404;23.498;2023-05-21T02:10:02;100603.94;;;9.70;72.79
73594;BME280;64760;53.404;23.498;2023-05-21T02:12:29;100604.59;;;9.64;73.06
73594;BME280;64760;53.404;23.498;2023-05-21T02:14:55;100609.31;;;9.54;73.92
73594;BME280;64760;53.404;23.498;2023-05-21T02:17:22;100614.50;;;9.47;74.93
73594;BME280;64760;53.404;23.498;2023-05-21T02:19:52;100616.84;;;9.42;74.94
73594;BME280;64760;53.404;23.498;2023-05-21T02:22:18;100608.31;;;9.38;75.05
73594;BME280;64760;53.404;23.498;2023-05-21T02:24:44;100607.28;;;9.39;75.26
73594;BME280;64760;53.404;23.498;2023-05-21T02:27:11;100607.63;;;9.36;75.32
73594;BME280;64760;53.404;23.498;2023-05-21T02:29:38;100612.97;;;9.36;74.81
73594;BME280;64760;53.404;23.498;2023-05-21T02:32:05;100615.16;;;9.41;75.32
73594;BME280;64760;53.404;23.498;2023-05-21T02:34:31;100615.16;;;9.41;75.24
73594;BME280;64760;53.404;23.498;2023-05-21T02:37:00;100615.16;;;9.41;76.03
73594;BME280;64760;53.404;23.498;2023-05-21T02:39:26;100622.00;;;9.43;75.75
73594;BME280;64760;53.404;23.498;2023-05-21T02:41:53;100615.50;;;9.54;75.14
73594;BME280;64760;53.404;23.498;2023-05-21T02:44:19;100617.16;;;9.63;74.94
73594;BME280;64760;53.404;23.498;2023-05-21T02:46:46;100621.31;;;9.74;74.38
73594;BME280;64760;53.404;23.498;2023-05-21T02:49:13;100617.44;;;9.93;73.32
73594;BME280;64760;53.404;23.498;2023-05-21T02:51:41;100619.44;;;10.15;71.78
73594;BME280;64760;53.404;23.498;2023-05-21T02:54:07;100621.53;;;10.35;70.54
73594;BME280;64760;53.404;23.498;2023-05-21T02:56:34;100617.94;;;10.51;69.90
73594;BME280;64760;53.404;23.498;2023-05-21T02:59:06;100619.91;;;10.65;69.26
73594;BME280;64760;53.404;23.498;2023-05-21T03:04:53;100616.16;;;10.74;69.39
73594;BME280;64760;53.404;23.498;2023-05-21T03:07:20;100618.22;;;10.64;69.75
73594;BME280;64760;53.404;23.498;2023-05-21T03:09:47;100629.34;;;10.53;70.51
73594;BME280;64760;53.404;23.498;2023-05-21T03:12:14;100608.44;;;10.41;71.45
73594;BME280;64760;53.404;23.498;2023-05-21T03:14:40;100612.34;;;10.30;71.94
73594;BME280;64760;53.404;23.498;2023-05-21T03:17:11;100612.38;;;10.22;72.17
73594;BME280;64760;53.404;23.498;2023-05-21T03:19:40;100612.06;;;10.17;73.38
73594;BME280;64760;53.404;23.498;2023-05-21T03:22:07;100616.75;;;10.15;73.45
73594;BME280;64760;53.404;23.498;2023-05-21T03:24:38;100621.94;;;10.16;72.96
73594;BME280;64760;53.404;23.498;2023-05-21T03:27:06;100618.75;;;10.21;73.11
73594;BME280;64760;53.404;23.498;2023-05-21T03:29:33;100620.41;;;10.22;72.94
73594;BME280;64760;53.404;23.498;2023-05-21T03:32:01;100621.41;;;10.29;73.03
73594;BME280;64760;53.404;23.498;2023-05-21T03:34:28;100608.81;;;10.38;72.81
73594;BME280;64760;53.404;23.498;2023-05-21T03:36:55;100610.59;;;10.45;72.26
73594;BME280;64760;53.404;23.498;2023-05-21T03:39:22;100611.56;;;10.52;71.68
73594;BME280;64760;53.404;23.498;2023-05-21T03:41:48;100616.53;;;10.63;70.78
73594;BME280;64760;53.404;23.498;2023-05-21T03:44:50;100618.66;;;10.76;70.18
73594;BME280;64760;53.404;23.498;2023-05-21T03:47:33;100612.72;;;10.89;69.46
73594;BME280;64760;53.404;23.498;2023-05-21T03:50:02;100612.78;;;11.03;69.16
73594;BME280;64760;53.404;23.498;2023-05-21T03:52:30;100608.41;;;11.10;68.89
73594;BME280;64760;53.404;23.498;2023-05-21T03:54:57;100612.03;;;11.17;68.06
73594;BME280;64760;53.404;23.498;2023-05-21T03:57:23;100606.25;;;11.28;66.83
73594;BME280;64760;53.404;23.498;2023-05-21T03:59:49;100606.00;;;11.38;67.31
73594;BME280;64760;53.404;23.498;2023-05-21T04:02:16;100609.09;;;11.50;67.42
73594;BME280;64760;53.404;23.498;2023-05-21T04:04:43;100606.13;;;11.59;66.30
73594;BME280;64760;53.404;23.498;2023-05-21T04:07:10;100612.09;;;11.69;66.35
73594;BME280;64760;53.404;23.498;2023-05-21T04:09:40;100603.34;;;11.75;65.60
73594;BME280;64760;53.404;23.498;2023-05-21T04:12:07;100602.78;;;11.80;65.17
73594;BME280;64760;53.404;23.498;2023-05-21T04:14:36;100603.38;;;11.90;65.44
73594;BME280;64760;53.404;23.498;2023-05-21T04:17:03;100601.41;;;11.99;64.77
73594;BME280;64760;53.404;23.498;2023-05-21T04:19:33;100600.97;;;12.10;63.92
73594;BME280;64760;53.404;23.498;2023-05-21T04:22:00;100596.16;;;12.20;63.27
73594;BME280;64760;53.404;23.498;2023-05-21T04:24:28;100597.34;;;12.32;63.07
73594;BME280;64760;53.404;23.498;2023-05-21T04:27:05;100587.50;;;12.39;63.34
73594;BME280;64760;53.404;23.498;2023-05-21T04:29:32;100588.63;;;12.45;63.20
73594;BME280;64760;53.404;23.498;2023-05-21T04:31:58;100600.47;;;12.50;63.30
73594;BME280;64760;53.404;23.498;2023-05-21T04:34:25;100603.44;;;12.55;63.64
73594;BME280;64760;53.404;23.498;2023-05-21T04:36:51;100596.09;;;12.64;62.40
73594;BME280;64760;53.404;23.498;2023-05-21T04:39:18;100591.72;;;12.78;62.37
73594;BME280;64760;53.404;23.498;2023-05-21T04:41:45;100590.56;;;12.87;61.78
73594;BME280;64760;53.404;23.498;2023-05-21T04:44:12;100585.72;;;12.97;61.58
73594;BME280;64760;53.404;23.498;2023-05-21T04:46:40;100581.63;;;13.01;61.23
73594;BME280;64760;53.404;23.498;2023-05-21T04:49:08;100587.53;;;13.11;61.02
73594;BME280;64760;53.404;23.498;2023-05-21T04:51:35;100582.69;;;13.21;60.66
73594;BME280;64760;53.404;23.498;2023-05-21T04:54:02;100580.91;;;13.35;60.39
73594;BME280;64760;53.404;23.498;2023-05-21T04:56:29;100576.06;;;13.45;60.26
73594;BME280;64760;53.404;23.498;2023-05-21T04:58:56;100576.75;;;13.53;60.13
73594;BME280;64760;53.404;23.498;2023-05-21T05:01:24;100574.69;;;13.55;60.32
73594;BME280;64760;53.404;23.498;2023-05-21T05:03:52;100574.09;;;13.60;59.77
73594;BME280;64760;53.404;23.498;2023-05-21T05:06:18;100574.94;;;13.60;59.97
73594;BME280;64760;53.404;23.498;2023-05-21T05:08:45;100584.34;;;13.71;59.53
73594;BME280;64760;53.404;23.498;2023-05-21T05:11:12;100582.50;;;13.78;60.26
73594;BME280;64760;53.404;23.498;2023-05-21T05:13:39;100583.63;;;13.90;59.70
73594;BME280;64760;53.404;23.498;2023-05-21T05:16:08;100576.41;;;13.97;60.00
73594;BME280;64760;53.404;23.498;2023-05-21T05:18:35;100583.31;;;14.06;59.58
73594;BME280;64760;53.404;23.498;2023-05-21T05:21:02;100583.81;;;14.17;60.17
73594;BME280;64760;53.404;23.498;2023-05-21T05:23:29;100587.56;;;14.22;60.44
73594;BME280;64760;53.404;23.498;2023-05-21T05:25:55;100582.66;;;14.32;60.24
73594;BME280;64760;53.404;23.498;2023-05-21T05:28:21;100572.75;;;14.39;60.80
73594;BME280;64760;53.404;23.498;2023-05-21T05:30:48;100564.91;;;14.51;59.11
73594;BME280;64760;53.404;23.498;2023-05-21T05:33:22;100578.66;;;14.63;58.95
73594;BME280;64760;53.404;23.498;2023-05-21T05:35:49;100577.44;;;14.78;57.67
73594;BME280;64760;53.404;23.498;2023-05-21T05:38:15;100581.88;;;14.92;57.20
73594;BME280;64760;53.404;23.498;2023-05-21T05:40:42;100572.94;;;15.05;56.76
73594;BME280;64760;53.404;23.498;2023-05-21T05:43:09;100573.38;;;15.15;56.05
73594;BME280;64760;53.404;23.498;2023-05-21T05:45:35;100568.63;;;15.24;56.45
73594;BME280;64760;53.404;23.498;2023-05-21T05:52:01;100569.88;;;15.47;55.01
73594;BME280;64760;53.404;23.498;2023-05-21T05:54:32;100570.72;;;15.61;55.79
73594;BME280;64760;53.404;23.498;2023-05-21T05:56:58;100562.22;;;15.71;54.94
73594;BME280;64760;53.404;23.498;2023-05-21T05:59:26;100560.09;;;15.86;54.65
73594;BME280;64760;53.404;23.498;2023-05-21T06:01:56;100561.13;;;15.98;53.62
73594;BME280;64760;53.404;23.498;2023-05-21T06:04:23;100560.91;;;16.06;52.39
73594;BME280;64760;53.404;23.498;2023-05-21T06:06:49;100552.94;;;16.18;51.72
73594;BME280;64760;53.404;23.498;2023-05-21T06:09:16;100550.41;;;16.29;51.64
73594;BME280;64760;53.404;23.498;2023-05-21T06:11:42;100549.13;;;16.38;51.17
73594;BME280;64760;53.404;23.498;2023-05-21T06:14:08;100550.34;;;16.49;50.65
73594;BME280;64760;53.404;23.498;2023-05-21T06:16:35;100540.75;;;16.60;50.36
73594;BME280;64760;53.404;23.498;2023-05-21T06:19:02;100543.63;;;16.71;49.89
73594;BME280;64760;53.404;23.498;2023-05-21T06:21:28;100553.56;;;16.77;50.25
73594;BME280;64760;53.404;23.498;2023-05-21T06:23:55;100537.69;;;16.87;49.48
73594;BME280;64760;53.404;23.498;2023-05-21T06:26:21;100540.13;;;16.96;49.79
73594;BME280;64760;53.404;23.498;2023-05-21T06:28:50;100545.50;;;17.02;48.99
73594;BME280;64760;53.404;23.498;2023-05-21T06:31:17;100542.13;;;17.07;48.65
73594;BME280;64760;53.404;23.498;2023-05-21T06:33:44;100540.81;;;17.16;48.60
73594;BME280;64760;53.404;23.498;2023-05-21T06:36:10;100529.50;;;17.25;49.61
73594;BME280;64760;53.404;23.498;2023-05-21T06:38:37;100539.47;;;17.31;49.90
73594;BME280;64760;53.404;23.498;2023-05-21T06:41:03;100537.28;;;17.40;49.37
73594;BME280;64760;53.404;23.498;2023-05-21T06:43:52;100538.47;;;17.51;49.62
73594;BME280;64760;53.404;23.498;2023-05-21T06:46:37;100535.88;;;17.56;48.65
73594;BME280;64760;53.404;23.498;2023-05-21T06:49:07;100536.09;;;17.61;49.09
73594;BME280;64760;53.404;23.498;2023-05-21T06:51:33;100533.94;;;17.69;48.89
73594;BME280;64760;53.404;23.498;2023-05-21T06:54:00;100533.44;;;17.79;48.35
73594;BME280;64760;53.404;23.498;2023-05-21T06:56:27;100533.56;;;17.84;48.77
73594;BME280;64760;53.404;23.498;2023-05-21T06:58:55;100529.31;;;17.95;48.96
73594;BME280;64760;53.404;23.498;2023-05-21T07:01:22;100535.69;;;18.00;47.84
73594;BME280;64760;53.404;23.498;2023-05-21T07:03:49;100534.13;;;18.11;48.17
73594;BME280;64760;53.404;23.498;2023-05-21T07:06:15;100531.91;;;18.19;47.96
73594;BME280;64760;53.404;23.498;2023-05-21T07:08:43;100523.03;;;18.30;48.47
73594;BME280;64760;53.404;23.498;2023-05-21T07:11:13;100522.63;;;18.45;47.98
73594;BME280;64760;53.404;23.498;2023-05-21T07:13:40;100524.38;;;18.58;47.23
73594;BME280;64760;53.404;23.498;2023-05-21T07:16:08;100528.06;;;18.63;46.91
73594;BME280;64760;53.404;23.498;2023-05-21T07:18:36;100512.75;;;18.69;46.69
73594;BME280;64760;53.404;23.498;2023-05-21T07:21:02;100528.25;;;18.80;46.58
73594;BME280;64760;53.404;23.498;2023-05-21T07:23:29;100512.09;;;18.85;46.67
73594;BME280;64760;53.404;23.498;2023-05-21T07:25:55;100524.41;;;18.99;45.83
73594;BME280;64760;53.404;23.498;2023-05-21T07:28:22;100517.00;;;19.06;45.57
73594;BME280;64760;53.404;23.498;2023-05-21T07:30:48;100518.06;;;19.17;44.72
73594;BME280;64760;53.404;23.498;2023-05-21T07:33:19;100518.31;;;19.27;44.61
73594;BME280;64760;53.404;23.498;2023-05-21T07:35:48;100509.03;;;19.35;44.07
73594;BME280;64760;53.404;23.498;2023-05-21T07:38:17;100513.00;;;19.32;43.74
73594;BME280;64760;53.404;23.498;2023-05-21T07:40:43;100516.22;;;19.41;43.56
73594;BME280;64760;53.404;23.498;2023-05-21T07:43:11;100513.66;;;19.57;43.80
73594;BME280;64760;53.404;23.498;2023-05-21T07:45:39;100508.44;;;19.67;42.29
73594;BME280;64760;53.404;23.498;2023-05-21T07:48:05;100503.00;;;19.67;43.17
73594;BME280;64760;53.404;23.498;2023-05-21T07:50:34;100506.91;;;19.83;43.04
73594;BME280;64760;53.404;23.498;2023-05-21T07:53:00;100503.09;;;19.96;42.11
73594;BME280;64760;53.404;23.498;2023-05-21T07:55:27;100502.88;;;19.97;41.14
73594;BME280;64760;53.404;23.498;2023-05-21T07:57:54;100504.88;;;20.13;41.93
73594;BME280;64760;53.404;23.498;2023-05-21T08:00:26;100498.78;;;20.23;40.63
73594;BME280;64760;53.404;23.498;2023-05-21T08:02:57;100495.47;;;20.33;39.74
73594;BME280;64760;53.404;23.498;2023-05-21T08:05:24;100495.59;;;20.38;39.52
73594;BME280;64760;53.404;23.498;2023-05-21T08:07:51;100503.28;;;20.41;38.39
73594;BME280;64760;53.404;23.498;2023-05-21T08:10:18;100499.72;;;20.40;38.44
73594;BME280;64760;53.404;23.498;2023-05-21T08:12:45;100502.75;;;20.55;37.25
73594;BME280;64760;53.404;23.498;2023-05-21T08:15:11;100496.00;;;20.58;37.27
73594;BME280;64760;53.404;23.498;2023-05-21T08:17:43;100495.44;;;20.73;37.19
73594;BME280;64760;53.404;23.498;2023-05-21T08:20:10;100497.66;;;20.76;36.71
73594;BME280;64760;53.404;23.498;2023-05-21T08:22:38;100501.22;;;20.76;37.55
73594;BME280;64760;53.404;23.498;2023-05-21T08:25:04;100494.47;;;20.95;37.87
73594;BME280;64760;53.404;23.498;2023-05-21T08:27:31;100494.34;;;21.02;36.91
73594;BME280;64760;53.404;23.498;2023-05-21T08:34:02;100497.03;;;21.14;36.76
73594;BME280;64760;53.404;23.498;2023-05-21T08:36:38;100498.19;;;21.18;36.30
73594;BME280;64760;53.404;23.498;2023-05-21T08:39:19;100499.81;;;21.19;36.04
73594;BME280;64760;53.404;23.498;2023-05-21T08:41:48;100492.38;;;21.31;37.03
73594;BME280;64760;53.404;23.498;2023-05-21T08:44:19;100483.28;;;21.42;35.82
73594;BME280;64760;53.404;23.498;2023-05-21T08:46:48;100499.09;;;21.40;35.53
73594;BME280;64760;53.404;23.498;2023-05-21T08:49:17;100501.16;;;21.33;33.75
73594;BME280;64760;53.404;23.498;2023-05-21T08:51:48;100494.13;;;21.37;35.41
73594;BME280;64760;53.404;23.498;2023-05-21T08:54:14;100496.59;;;21.38;35.57
73594;BME280;64760;53.404;23.498;2023-05-21T08:56:42;100489.66;;;21.47;34.14
73594;BME280;64760;53.404;23.498;2023-05-21T08:59:17;100487.41;;;21.61;34.45
73594;BME280;64760;53.404;23.498;2023-05-21T09:01:46;100490.91;;;21.57;34.98
73594;BME280;64760;53.404;23.498;2023-05-21T09:04:22;100484.41;;;21.63;33.93
73594;BME280;64760;53.404;23.498;2023-05-21T09:06:53;100490.88;;;21.73;34.38
73594;BME280;64760;53.404;23.498;2023-05-21T09:09:55;100488.69;;;21.75;30.39
73594;BME280;64760;53.404;23.498;2023-05-21T09:12:23;100481.47;;;21.86;30.56
73594;BME280;64760;53.404;23.498;2023-05-21T09:14:51;100488.19;;;21.95;31.22
73594;BME280;64760;53.404;23.498;2023-05-21T09:17:20;100486.53;;;21.94;31.33
73594;BME280;64760;53.404;23.498;2023-05-21T09:22:45;100479.63;;;22.08;32.58
73594;BME280;64760;53.404;23.498;2023-05-21T09:25:22;100482.91;;;22.10;30.42
73594;BME280;64760;53.404;23.498;2023-05-21T09:27:49;100480.25;;;22.15;30.66
73594;BME280;64760;53.404;23.498;2023-05-21T09:30:17;100479.63;;;22.08;30.94
73594;BME280;64760;53.404;23.498;2023-05-21T09:32:45;100475.50;;;22.06;30.57
73594;BME280;64760;53.404;23.498;2023-05-21T09:35:16;100479.63;;;22.08;30.25
73594;BME280;64760;53.404;23.498;2023-05-21T09:37:46;100473.66;;;22.11;30.49
73594;BME280;64760;53.404;23.498;2023-05-21T09:40:15;100464.25;;;22.24;31.35
73594;BME280;64760;53.404;23.498;2023-05-21T09:42:48;100462.50;;;22.13;31.26
73594;BME280;64760;53.404;23.498;2023-05-21T09:45:24;100466.94;;;21.97;29.61
73594;BME280;64760;53.404;23.498;2023-05-21T09:47:54;100457.63;;;21.76;28.44
73594;BME280;64760;53.404;23.498;2023-05-21T09:50:22;100473.78;;;21.99;30.29
73594;BME280;64760;53.404;23.498;2023-05-21T09:52:50;100467.81;;;21.86;29.95
73594;BME280;64760;53.404;23.498;2023-05-21T09:55:21;100458.78;;;22.02;30.74
73594;BME280;64760;53.404;23.498;2023-05-21T09:57:48;100453.22;;;21.92;30.37
73594;BME280;64760;53.404;23.498;2023-05-21T10:00:26;100452.16;;;21.76;31.13
73594;BME280;64760;53.404;23.498;2023-05-21T10:02:54;100441.78;;;21.57;30.50
73594;BME280;64760;53.404;23.498;2023-05-21T10:05:24;100440.44;;;21.59;31.42
73594;BME280;64760;53.404;23.498;2023-05-21T10:07:52;100445.22;;;21.69;31.63
73594;BME280;64760;53.404;23.498;2023-05-21T10:10:21;100446.38;;;21.73;30.14
73594;BME280;64760;53.404;23.498;2023-05-21T10:12:54;100441.88;;;21.62;29.34
73594;BME280;64760;53.404;23.498;2023-05-21T10:15:23;100441.59;;;21.63;29.86
73594;BME280;64760;53.404;23.498;2023-05-21T10:17:54;100445.88;;;21.76;29.65
73594;BME280;64760;53.404;23.498;2023-05-21T10:20:21;100448.72;;;21.64;29.68
73594;BME280;64760;53.404;23.498;2023-05-21T10:22:49;100445.94;;;21.97;30.49
73594;BME280;64760;53.404;23.498;2023-05-21T10:25:16;100438.47;;;22.15;31.33
73594;BME280;64760;53.404;23.498;2023-05-21T10:27:43;100439.00;;;22.38;30.70
73594;BME280;64760;53.404;23.498;2023-05-21T10:30:10;100432.53;;;22.44;30.15
73594;BME280;64760;53.404;23.498;2023-05-21T10:32:38;100429.84;;;22.49;29.77
73594;BME280;64760;53.404;23.498;2023-05-21T10:35:06;100430.56;;;22.40;29.42
73594;BME280;64760;53.404;23.498;2023-05-21T10:37:34;100427.94;;;22.50;29.94
73594;BME280;64760;53.404;23.498;2023-05-21T10:40:00;100438.09;;;22.55;30.07
73594;BME280;64760;53.404;23.498;2023-05-21T10:45:35;100422.59;;;22.60;29.21
73594;BME280;64760;53.404;23.498;2023-05-21T10:48:22;100428.06;;;22.60;28.62
73594;BME280;64760;53.404;23.498;2023-05-21T10:56:28;100425.19;;;22.01;28.29
73594;BME280;64760;53.404;23.498;2023-05-21T11:01:31;100416.81;;;22.08;28.86
73594;BME280;64760;53.404;23.498;2023-05-21T11:03:59;100408.59;;;22.30;29.79
73594;BME280;64760;53.404;23.498;2023-05-21T11:06:25;100410.91;;;22.43;29.75
73594;BME280;64760;53.404;23.498;2023-05-21T11:08:52;100407.19;;;22.49;29.73
73594;BME280;64760;53.404;23.498;2023-05-21T11:14:38;100401.31;;;22.67;29.33
73594;BME280;64760;53.404;23.498;2023-05-21T11:17:15;100409.03;;;22.70;28.49
73594;BME280;64760;53.404;23.498;2023-05-21T11:19:46;100408.84;;;22.77;27.95
73594;BME280;64760;53.404;23.498;2023-05-21T11:24:49;100392.09;;;22.73;29.38
73594;BME280;64760;53.404;23.498;2023-05-21T11:27:35;100404.97;;;22.73;29.58
73594;BME280;64760;53.404;23.498;2023-05-21T11:30:22;100399.88;;;22.86;30.09
73594;BME280;64760;53.404;23.498;2023-05-21T11:35:58;100394.47;;;22.65;28.65
73594;BME280;64760;53.404;23.498;2023-05-21T11:38:30;100397.53;;;22.68;27.22
73594;BME280;64760;53.404;23.498;2023-05-21T11:41:02;100393.50;;;22.76;27.97
73594;BME280;64760;53.404;23.498;2023-05-21T11:43:28;100389.53;;;22.93;27.35
73594;BME280;64760;53.404;23.498;2023-05-21T11:45:55;100387.91;;;22.92;28.93
73594;BME280;64760;53.404;23.498;2023-05-21T11:48:24;100385.81;;;23.05;28.05
73594;BME280;64760;53.404;23.498;2023-05-21T11:50:51;100386.41;;;23.12;27.97
73594;BME280;64760;53.404;23.498;2023-05-21T11:53:23;100382.56;;;23.08;28.48
73594;BME280;64760;53.404;23.498;2023-05-21T11:55:52;100383.88;;;23.00;29.08
73594;BME280;64760;53.404;23.498;2023-05-21T11:58:22;100380.94;;;23.12;28.71
73594;BME280;64760;53.404;23.498;2023-05-21T12:00:50;100385.03;;;23.14;29.43
73594;BME280;64760;53.404;23.498;2023-05-21T12:03:16;100382.25;;;23.04;28.88
73594;BME280;64760;53.404;23.498;2023-05-21T12:05:44;100382.16;;;22.94;28.38
73594;BME280;64760;53.404;23.498;2023-05-21T12:08:12;100377.00;;;22.98;28.70
73594;BME280;64760;53.404;23.498;2023-05-21T12:10:38;100373.78;;;23.06;29.06
73594;BME280;64760;53.404;23.498;2023-05-21T12:13:05;100368.09;;;23.12;28.07
73594;BME280;64760;53.404;23.498;2023-05-21T12:15:32;100362.97;;;23.21;26.93
73594;BME280;64760;53.404;23.498;2023-05-21T12:17:58;100373.41;;;23.34;27.66
73594;BME280;64760;53.404;23.498;2023-05-21T12:20:27;100380.50;;;23.30;27.54
73594;BME280;64760;53.404;23.498;2023-05-21T12:22:54;100373.78;;;23.43;28.34
73594;BME280;64760;53.404;23.498;2023-05-21T12:25:22;100369.69;;;23.50;28.40
73594;BME280;64760;53.404;23.498;2023-05-21T12:27:49;100369.59;;;23.35;28.35
73594;BME280;64760;53.404;23.498;2023-05-21T12:30:24;100367.09;;;23.28;27.92
73594;BME280;64760;53.404;23.498;2023-05-21T12:32:50;100363.53;;;23.33;28.70
73594;BME280;64760;53.404;23.498;2023-05-21T12:35:21;100364.16;;;23.40;28.00
73594;BME280;64760;53.404;23.498;2023-05-21T12:37:48;100361.13;;;23.41;28.33
73594;BME280;64760;53.404;23.498;2023-05-21T12:40:16;100355.47;;;23.48;29.10
73594;BME280;64760;53.404;23.498;2023-05-21T12:42:43;100348.13;;;23.59;29.92
73594;BME280;64760;53.404;23.498;2023-05-21T12:45:10;100345.97;;;23.66;29.01
73594;BME280;64760;53.404;23.498;2023-05-21T12:47:36;100343.50;;;23.69;29.65
73594;BME280;64760;53.404;23.498;2023-05-21T12:50:07;100336.94;;;23.70;29.91
73594;BME280;64760;53.404;23.498;2023-05-21T12:52:35;100343.78;;;23.68;29.79
73594;BME280;64760;53.404;23.498;2023-05-21T12:55:04;100343.25;;;23.71;29.80
73594;BME280;64760;53.404;23.498;2023-05-21T12:57:35;100340.19;;;23.62;28.97
73594;BME280;64760;53.404;23.498;2023-05-21T13:00:05;100336.09;;;23.60;29.05
73594;BME280;64760;53.404;23.498;2023-05-21T13:02:33;100331.03;;;23.41;28.65
73594;BME280;64760;53.404;23.498;2023-05-21T13:05:05;100331.66;;;23.49;29.32
73594;BME280;64760;53.404;23.498;2023-05-21T13:07:33;100339.06;;;23.53;28.98
73594;BME280;64760;53.404;23.498;2023-05-21T13:10:01;100330.06;;;23.63;29.39
73594;BME280;64760;53.404;23.498;2023-05-21T13:12:29;100329.53;;;23.66;28.17
73594;BME280;64760;53.404;23.498;2023-05-21T13:14:58;100322.41;;;23.65;29.07
73594;BME280;64760;53.404;23.498;2023-05-21T13:17:26;100329.66;;;23.39;28.39
73594;BME280;64760;53.404;23.498;2023-05-21T13:20:12;100321.81;;;23.48;29.55
73594;BME280;64760;53.404;23.498;2023-05-21T13:22:52;100318.28;;;23.57;29.87
73594;BME280;64760;53.404;23.498;2023-05-21T13:25:21;100320.75;;;23.59;29.79
73594;BME280;64760;53.404;23.498;2023-05-21T13:27:50;100321.00;;;23.57;29.91
73594;BME280;64760;53.404;23.498;2023-05-21T13:30:18;100325.44;;;23.63;28.89
73594;BME280;64760;53.404;23.498;2023-05-21T13:32:46;100317.25;;;23.68;30.04